Terminal Aerodrome Forecast
Issued by NWS Jacksonville, FL

Home | Current Version | Previous Version | Text Only | Print | Product List | Glossary On
Versions: 1 2 3 4 5 6 7 8 9 10 11 12 13 14 15 16 17 18 19 20 21 22 23 24 25 26
229
FTUS42 KJAX 212134 AAA
TAFSSI
TAF AMD
KSSI 212134Z 2122/2218 06008KT P6SM VCSH SCT025 BKN070 OVC110
      TEMPO 2122/2124 3SM +SHRA BR BKN025 OVC070
     FM220300 16004KT P6SM BKN070 BKN200
     FM221600 13007KT P6SM SCT040=

USA.gov is the U.S. government's official web portal to all federal, state and local government web resources and services.